sensor_id;sensor_type;location;lat;lon;timestamp;P1;durP1;ratioP1;P2;durP2;ratioP2
8230;SDS011;4156;50.908;6.974;2023-01-30T00:00:21;10.20;;;6.70;;
8230;SDS011;4156;50.908;6.974;2023-01-30T00:02:46;11.70;;;7.13;;
8230;SDS011;4156;50.908;6.974;2023-01-30T00:05:12;11.50;;;7.27;;
8230;SDS011;4156;50.908;6.974;2023-01-30T00:07:37;12.10;;;6.53;;
8230;SDS011;4156;50.908;6.974;2023-01-30T00:10:03;10.43;;;6.40;;
8230;SDS011;4156;50.908;6.974;2023-01-30T00:12:29;11.03;;;6.30;;
8230;SDS011;4156;50.908;6.974;2023-01-30T00:14:54;10.63;;;7.07;;
8230;SDS011;4156;50.908;6.974;2023-01-30T00:17:20;10.37;;;6.07;;
8230;SDS011;4156;50.908;6.974;2023-01-30T00:19:45;9.83;;;6.57;;
8230;SDS011;4156;50.908;6.974;2023-01-30T00:22:11;10.13;;;6.53;;
8230;SDS011;4156;50.908;6.974;2023-01-30T00:24:36;10.07;;;5.97;;
8230;SDS011;4156;50.908;6.974;2023-01-30T00:27:02;9.83;;;6.17;;
8230;SDS011;4156;50.908;6.974;2023-01-30T00:29:27;8.93;;;6.10;;
8230;SDS011;4156;50.908;6.974;2023-01-30T00:31:53;9.50;;;6.37;;
8230;SDS011;4156;50.908;6.974;2023-01-30T00:34:18;9.57;;;6.37;;
8230;SDS011;4156;50.908;6.974;2023-01-30T00:36:44;10.07;;;6.40;;
8230;SDS011;4156;50.908;6.974;2023-01-30T00:39:09;9.63;;;6.73;;
8230;SDS011;4156;50.908;6.974;2023-01-30T00:41:35;9.30;;;6.23;;
8230;SDS011;4156;50.908;6.974;2023-01-30T00:44:19;9.10;;;6.30;;
8230;SDS011;4156;50.908;6.974;2023-01-30T00:47:03;11.37;;;6.73;;
8230;SDS011;4156;50.908;6.974;2023-01-30T00:49:33;11.63;;;7.73;;
8230;SDS011;4156;50.908;6.974;2023-01-30T00:51:59;12.60;;;7.60;;
8230;SDS011;4156;50.908;6.974;2023-01-30T00:54:25;10.83;;;6.47;;
8230;SDS011;4156;50.908;6.974;2023-01-30T00:56:51;13.27;;;6.93;;
8230;SDS011;4156;50.908;6.974;2023-01-30T00:59:16;11.30;;;7.23;;
8230;SDS011;4156;50.908;6.974;2023-01-30T01:01:42;11.50;;;6.67;;
8230;SDS011;4156;50.908;6.974;2023-01-30T01:04:08;10.63;;;6.63;;
8230;SDS011;4156;50.908;6.974;2023-01-30T01:06:35;12.47;;;7.53;;
8230;SDS011;4156;50.908;6.974;2023-01-30T01:09:02;10.70;;;6.30;;
8230;SDS011;4156;50.908;6.974;2023-01-30T01:11:28;10.67;;;6.67;;
8230;SDS011;4156;50.908;6.974;2023-01-30T01:13:57;12.07;;;7.03;;
8230;SDS011;4156;50.908;6.974;2023-01-30T01:16:25;10.80;;;6.17;;
8230;SDS011;4156;50.908;6.974;2023-01-30T01:18:52;9.97;;;6.20;;
8230;SDS011;4156;50.908;6.974;2023-01-30T01:21:18;11.00;;;7.00;;
8230;SDS011;4156;50.908;6.974;2023-01-30T01:23:48;10.57;;;6.47;;
8230;SDS011;4156;50.908;6.974;2023-01-30T01:26:15;11.23;;;7.17;;
8230;SDS011;4156;50.908;6.974;2023-01-30T01:28:41;13.43;;;7.20;;
8230;SDS011;4156;50.908;6.974;2023-01-30T01:31:07;11.20;;;6.67;;
8230;SDS011;4156;50.908;6.974;2023-01-30T01:33:34;11.60;;;7.27;;
8230;SDS011;4156;50.908;6.974;2023-01-30T01:35:59;11.83;;;7.20;;
8230;SDS011;4156;50.908;6.974;2023-01-30T01:38:25;13.73;;;8.03;;
8230;SDS011;4156;50.908;6.974;2023-01-30T01:40:50;13.43;;;7.77;;
8230;SDS011;4156;50.908;6.974;2023-01-30T01:43:32;13.27;;;7.03;;
8230;SDS011;4156;50.908;6.974;2023-01-30T01:46:11;12.47;;;7.40;;
8230;SDS011;4156;50.908;6.974;2023-01-30T01:48:45;12.07;;;7.07;;
8230;SDS011;4156;50.908;6.974;2023-01-30T01:51:16;13.33;;;7.67;;
8230;SDS011;4156;50.908;6.974;2023-01-30T01:53:55;10.07;;;7.03;;
8230;SDS011;4156;50.908;6.974;2023-01-30T01:56:25;12.63;;;7.30;;
8230;SDS011;4156;50.908;6.974;2023-01-30T01:58:54;11.37;;;7.30;;
8230;SDS011;4156;50.908;6.974;2023-01-30T02:01:24;15.40;;;8.50;;
8230;SDS011;4156;50.908;6.974;2023-01-30T02:03:51;13.87;;;8.00;;
8230;SDS011;4156;50.908;6.974;2023-01-30T02:06:20;14.47;;;8.20;;
8230;SDS011;4156;50.908;6.974;2023-01-30T02:08:47;11.67;;;7.33;;
8230;SDS011;4156;50.908;6.974;2023-01-30T02:11:25;15.80;;;7.90;;
8230;SDS011;4156;50.908;6.974;2023-01-30T02:13:57;11.77;;;7.50;;
8230;SDS011;4156;50.908;6.974;2023-01-30T02:16:24;13.83;;;8.07;;
8230;SDS011;4156;50.908;6.974;2023-01-30T02:18:50;13.17;;;7.57;;
8230;SDS011;4156;50.908;6.974;2023-01-30T02:24:11;14.77;;;8.13;;
8230;SDS011;4156;50.908;6.974;2023-01-30T02:29:36;12.93;;;8.10;;
8230;SDS011;4156;50.908;6.974;2023-01-30T02:32:29;15.90;;;8.47;;
8230;SDS011;4156;50.908;6.974;2023-01-30T02:37:57;13.53;;;7.53;;
8230;SDS011;4156;50.908;6.974;2023-01-30T02:40:48;13.60;;;7.53;;
8230;SDS011;4156;50.908;6.974;2023-01-30T02:43:26;11.73;;;7.27;;
8230;SDS011;4156;50.908;6.974;2023-01-30T02:48:41;12.30;;;7.43;;
8230;SDS011;4156;50.908;6.974;2023-01-30T02:51:15;12.23;;;7.27;;
8230;SDS011;4156;50.908;6.974;2023-01-30T02:53:45;13.00;;;7.47;;
8230;SDS011;4156;50.908;6.974;2023-01-30T02:56:12;10.57;;;6.90;;
8230;SDS011;4156;50.908;6.974;2023-01-30T02:58:39;13.40;;;8.03;;
8230;SDS011;4156;50.908;6.974;2023-01-30T03:01:19;14.00;;;8.40;;
8230;SDS011;4156;50.908;6.974;2023-01-30T03:04:00;12.17;;;7.40;;
8230;SDS011;4156;50.908;6.974;2023-01-30T03:10:00;13.63;;;7.93;;
8230;SDS011;4156;50.908;6.974;2023-01-30T03:15:33;14.20;;;7.47;;
8230;SDS011;4156;50.908;6.974;2023-01-30T03:18:02;12.27;;;8.37;;
8230;SDS011;4156;50.908;6.974;2023-01-30T03:20:28;10.93;;;6.87;;
8230;SDS011;4156;50.908;6.974;2023-01-30T03:22:54;14.67;;;8.53;;
8230;SDS011;4156;50.908;6.974;2023-01-30T03:25:21;14.40;;;7.93;;
8230;SDS011;4156;50.908;6.974;2023-01-30T03:27:50;11.53;;;7.60;;
8230;SDS011;4156;50.908;6.974;2023-01-30T03:30:18;13.07;;;8.07;;
8230;SDS011;4156;50.908;6.974;2023-01-30T03:32:44;11.47;;;8.00;;
8230;SDS011;4156;50.908;6.974;2023-01-30T03:35:09;12.50;;;7.40;;
8230;SDS011;4156;50.908;6.974;2023-01-30T03:37:35;13.10;;;7.50;;
8230;SDS011;4156;50.908;6.974;2023-01-30T03:40:01;12.17;;;7.60;;
8230;SDS011;4156;50.908;6.974;2023-01-30T03:42:26;13.67;;;7.57;;
8230;SDS011;4156;50.908;6.974;2023-01-30T03:44:52;14.77;;;7.60;;
8230;SDS011;4156;50.908;6.974;2023-01-30T03:47:18;14.90;;;7.47;;
8230;SDS011;4156;50.908;6.974;2023-01-30T03:49:43;12.37;;;6.90;;
8230;SDS011;4156;50.908;6.974;2023-01-30T03:52:09;12.20;;;7.47;;
8230;SDS011;4156;50.908;6.974;2023-01-30T03:54:34;13.13;;;7.60;;
8230;SDS011;4156;50.908;6.974;2023-01-30T03:57:00;12.33;;;6.83;;
8230;SDS011;4156;50.908;6.974;2023-01-30T03:59:25;11.60;;;7.63;;
8230;SDS011;4156;50.908;6.974;2023-01-30T04:01:51;11.70;;;7.70;;
8230;SDS011;4156;50.908;6.974;2023-01-30T04:04:16;13.37;;;7.70;;
8230;SDS011;4156;50.908;6.974;2023-01-30T04:06:42;11.63;;;6.90;;
8230;SDS011;4156;50.908;6.974;2023-01-30T04:09:07;10.20;;;6.43;;
8230;SDS011;4156;50.908;6.974;2023-01-30T04:11:33;12.03;;;7.03;;
8230;SDS011;4156;50.908;6.974;2023-01-30T04:13:58;10.73;;;6.90;;
8230;SDS011;4156;50.908;6.974;2023-01-30T04:16:25;10.47;;;6.60;;
8230;SDS011;4156;50.908;6.974;2023-01-30T04:18:51;11.57;;;6.50;;
8230;SDS011;4156;50.908;6.974;2023-01-30T04:21:17;12.07;;;6.50;;
8230;SDS011;4156;50.908;6.974;2023-01-30T04:23:43;10.57;;;6.87;;
8230;SDS011;4156;50.908;6.974;2023-01-30T04:26:08;9.00;;;6.37;;
8230;SDS011;4156;50.908;6.974;2023-01-30T04:28:35;9.07;;;6.50;;
8230;SDS011;4156;50.908;6.974;2023-01-30T04:31:01;10.90;;;6.30;;
8230;SDS011;4156;50.908;6.974;2023-01-30T04:33:27;12.20;;;6.83;;
8230;SDS011;4156;50.908;6.974;2023-01-30T04:38:20;9.13;;;6.47;;
8230;SDS011;4156;50.908;6.974;2023-01-30T04:40:47;12.30;;;7.60;;
8230;SDS011;4156;50.908;6.974;2023-01-30T04:43:16;12.63;;;6.17;;
8230;SDS011;4156;50.908;6.974;2023-01-30T04:45:43;10.93;;;6.70;;
8230;SDS011;4156;50.908;6.974;2023-01-30T04:48:09;9.53;;;6.03;;
8230;SDS011;4156;50.908;6.974;2023-01-30T04:50:35;12.27;;;6.73;;
8230;SDS011;4156;50.908;6.974;2023-01-30T04:53:01;12.23;;;6.70;;
8230;SDS011;4156;50.908;6.974;2023-01-30T04:55:26;10.97;;;6.93;;
8230;SDS011;4156;50.908;6.974;2023-01-30T04:57:51;10.17;;;6.57;;
8230;SDS011;4156;50.908;6.974;2023-01-30T05:00:17;12.20;;;6.93;;
8230;SDS011;4156;50.908;6.974;2023-01-30T05:02:43;13.77;;;8.80;;
8230;SDS011;4156;50.908;6.974;2023-01-30T05:05:08;12.17;;;7.27;;
8230;SDS011;4156;50.908;6.974;2023-01-30T05:07:34;13.83;;;7.67;;
8230;SDS011;4156;50.908;6.974;2023-01-30T05:09:59;12.47;;;7.20;;
8230;SDS011;4156;50.908;6.974;2023-01-30T05:12:26;11.73;;;7.43;;
8230;SDS011;4156;50.908;6.974;2023-01-30T05:14:52;11.70;;;7.80;;
8230;SDS011;4156;50.908;6.974;2023-01-30T05:17:18;14.33;;;7.63;;
8230;SDS011;4156;50.908;6.974;2023-01-30T05:19:43;13.87;;;8.37;;
8230;SDS011;4156;50.908;6.974;2023-01-30T05:22:09;10.77;;;7.43;;
8230;SDS011;4156;50.908;6.974;2023-01-30T05:24:34;10.77;;;7.00;;
8230;SDS011;4156;50.908;6.974;2023-01-30T05:27:00;10.80;;;7.03;;
8230;SDS011;4156;50.908;6.974;2023-01-30T05:29:26;10.77;;;6.93;;
8230;SDS011;4156;50.908;6.974;2023-01-30T05:31:52;11.53;;;7.63;;
8230;SDS011;4156;50.908;6.974;2023-01-30T05:34:17;11.63;;;6.63;;
8230;SDS011;4156;50.908;6.974;2023-01-30T05:36:43;11.97;;;7.63;;
8230;SDS011;4156;50.908;6.974;2023-01-30T05:39:08;10.83;;;6.53;;
8230;SDS011;4156;50.908;6.974;2023-01-30T05:41:34;10.70;;;7.07;;
8230;SDS011;4156;50.908;6.974;2023-01-30T05:43:59;10.00;;;6.73;;
8230;SDS011;4156;50.908;6.974;2023-01-30T05:46:25;11.27;;;7.50;;
8230;SDS011;4156;50.908;6.974;2023-01-30T05:48:51;12.83;;;7.57;;
8230;SDS011;4156;50.908;6.974;2023-01-30T05:51:20;10.87;;;6.87;;
8230;SDS011;4156;50.908;6.974;2023-01-30T05:53:47;12.37;;;6.83;;
8230;SDS011;4156;50.908;6.974;2023-01-30T05:56:13;8.83;;;6.07;;
8230;SDS011;4156;50.908;6.974;2023-01-30T05:58:39;9.87;;;6.90;;
8230;SDS011;4156;50.908;6.974;2023-01-30T06:01:07;8.37;;;5.80;;
8230;SDS011;4156;50.908;6.974;2023-01-30T06:03:35;9.13;;;6.00;;
8230;SDS011;4156;50.908;6.974;2023-01-30T06:06:02;10.10;;;6.10;;
8230;SDS011;4156;50.908;6.974;2023-01-30T06:08:28;7.93;;;5.63;;
8230;SDS011;4156;50.908;6.974;2023-01-30T06:10:58;7.83;;;5.60;;
8230;SDS011;4156;50.908;6.974;2023-01-30T06:13:25;8.50;;;5.60;;
8230;SDS011;4156;50.908;6.974;2023-01-30T06:15:51;7.13;;;4.87;;
8230;SDS011;4156;50.908;6.974;2023-01-30T06:18:16;7.43;;;5.13;;
8230;SDS011;4156;50.908;6.974;2023-01-30T06:20:46;7.33;;;5.23;;
8230;SDS011;4156;50.908;6.974;2023-01-30T06:23:13;7.53;;;5.10;;
8230;SDS011;4156;50.908;6.974;2023-01-30T06:25:41;7.70;;;4.80;;
8230;SDS011;4156;50.908;6.974;2023-01-30T06:28:11;6.27;;;4.83;;
8230;SDS011;4156;50.908;6.974;2023-01-30T06:30:37;6.27;;;4.27;;
8230;SDS011;4156;50.908;6.974;2023-01-30T06:33:03;6.67;;;5.13;;
8230;SDS011;4156;50.908;6.974;2023-01-30T06:35:29;7.27;;;4.27;;
8230;SDS011;4156;50.908;6.974;2023-01-30T06:37:54;6.67;;;4.90;;
8230;SDS011;4156;50.908;6.974;2023-01-30T06:40:20;7.50;;;4.17;;
8230;SDS011;4156;50.908;6.974;2023-01-30T06:42:45;6.93;;;4.23;;
8230;SDS011;4156;50.908;6.974;2023-01-30T06:45:12;7.53;;;5.03;;
8230;SDS011;4156;50.908;6.974;2023-01-30T06:47:45;5.60;;;4.13;;
8230;SDS011;4156;50.908;6.974;2023-01-30T06:50:15;6.40;;;4.33;;
8230;SDS011;4156;50.908;6.974;2023-01-30T06:52:42;5.40;;;4.10;;
8230;SDS011;4156;50.908;6.974;2023-01-30T06:55:09;6.37;;;4.03;;
8230;SDS011;4156;50.908;6.974;2023-01-30T06:57:36;5.40;;;3.73;;
8230;SDS011;4156;50.908;6.974;2023-01-30T07:00:03;6.70;;;4.30;;
8230;SDS011;4156;50.908;6.974;2023-01-30T07:02:30;5.40;;;3.50;;
8230;SDS011;4156;50.908;6.974;2023-01-30T07:04:58;5.50;;;3.87;;
8230;SDS011;4156;50.908;6.974;2023-01-30T07:07:24;4.87;;;3.70;;
8230;SDS011;4156;50.908;6.974;2023-01-30T07:09:49;6.77;;;4.10;;
8230;SDS011;4156;50.908;6.974;2023-01-30T07:12:15;5.70;;;4.10;;
8230;SDS011;4156;50.908;6.974;2023-01-30T07:14:40;5.73;;;4.00;;
8230;SDS011;4156;50.908;6.974;2023-01-30T07:17:06;5.63;;;3.70;;
8230;SDS011;4156;50.908;6.974;2023-01-30T07:19:31;5.33;;;3.87;;
8230;SDS011;4156;50.908;6.974;2023-01-30T07:21:57;5.57;;;4.37;;
8230;SDS011;4156;50.908;6.974;2023-01-30T07:24:22;7.23;;;4.40;;
8230;SDS011;4156;50.908;6.974;2023-01-30T07:26:48;6.13;;;4.40;;
8230;SDS011;4156;50.908;6.974;2023-01-30T07:29:13;8.37;;;4.47;;
8230;SDS011;4156;50.908;6.974;2023-01-30T07:31:39;7.07;;;4.30;;
8230;SDS011;4156;50.908;6.974;2023-01-30T07:34:04;6.27;;;4.40;;
8230;SDS011;4156;50.908;6.974;2023-01-30T07:36:30;5.40;;;4.03;;
8230;SDS011;4156;50.908;6.974;2023-01-30T07:38:57;7.23;;;4.80;;
8230;SDS011;4156;50.908;6.974;2023-01-30T07:41:23;7.03;;;4.47;;
8230;SDS011;4156;50.908;6.974;2023-01-30T07:43:49;10.70;;;4.43;;
8230;SDS011;4156;50.908;6.974;2023-01-30T07:46:14;7.80;;;5.10;;
8230;SDS011;4156;50.908;6.974;2023-01-30T07:48:40;6.60;;;4.50;;
8230;SDS011;4156;50.908;6.974;2023-01-30T07:51:08;5.33;;;3.87;;
8230;SDS011;4156;50.908;6.974;2023-01-30T07:53:34;6.03;;;4.27;;
8230;SDS011;4156;50.908;6.974;2023-01-30T07:56:05;5.47;;;4.23;;
8230;SDS011;4156;50.908;6.974;2023-01-30T07:58:34;5.93;;;4.40;;
8230;SDS011;4156;50.908;6.974;2023-01-30T08:01:00;6.17;;;4.23;;
8230;SDS011;4156;50.908;6.974;2023-01-30T08:03:26;6.73;;;4.37;;
8230;SDS011;4156;50.908;6.974;2023-01-30T08:05:52;9.30;;;5.87;;
8230;SDS011;4156;50.908;6.974;2023-01-30T08:08:18;5.90;;;4.13;;
8230;SDS011;4156;50.908;6.974;2023-01-30T08:10:44;10.07;;;4.93;;
8230;SDS011;4156;50.908;6.974;2023-01-30T08:13:12;5.90;;;4.30;;
8230;SDS011;4156;50.908;6.974;2023-01-30T08:15:38;8.13;;;4.73;;
8230;SDS011;4156;50.908;6.974;2023-01-30T08:18:03;8.53;;;4.57;;
8230;SDS011;4156;50.908;6.974;2023-01-30T08:20:31;6.50;;;4.40;;
8230;SDS011;4156;50.908;6.974;2023-01-30T08:22:57;8.37;;;4.63;;
8230;SDS011;4156;50.908;6.974;2023-01-30T08:25:23;5.40;;;4.40;;
8230;SDS011;4156;50.908;6.974;2023-01-30T08:27:49;7.73;;;5.13;;
8230;SDS011;4156;50.908;6.974;2023-01-30T08:30:15;8.63;;;4.70;;
8230;SDS011;4156;50.908;6.974;2023-01-30T08:32:40;6.77;;;4.33;;
8230;SDS011;4156;50.908;6.974;2023-01-30T08:35:06;6.50;;;4.50;;
8230;SDS011;4156;50.908;6.974;2023-01-30T08:37:32;8.47;;;4.40;;
8230;SDS011;4156;50.908;6.974;2023-01-30T08:39:58;6.77;;;4.43;;
8230;SDS011;4156;50.908;6.974;2023-01-30T08:42:23;7.17;;;5.20;;
8230;SDS011;4156;50.908;6.974;2023-01-30T08:44:49;7.27;;;4.70;;
8230;SDS011;4156;50.908;6.974;2023-01-30T08:47:14;5.83;;;5.00;;
8230;SDS011;4156;50.908;6.974;2023-01-30T08:49:40;11.00;;;5.77;;
8230;SDS011;4156;50.908;6.974;2023-01-30T08:52:05;8.37;;;5.53;;
8230;SDS011;4156;50.908;6.974;2023-01-30T08:54:31;8.80;;;4.70;;
8230;SDS011;4156;50.908;6.974;2023-01-30T08:56:56;8.10;;;4.90;;
8230;SDS011;4156;50.908;6.974;2023-01-30T08:59:22;6.63;;;5.17;;
8230;SDS011;4156;50.908;6.974;2023-01-30T09:01:47;13.23;;;5.47;;
8230;SDS011;4156;50.908;6.974;2023-01-30T09:04:14;9.73;;;5.30;;
8230;SDS011;4156;50.908;6.974;2023-01-30T09:06:39;9.53;;;5.80;;
8230;SDS011;4156;50.908;6.974;2023-01-30T09:09:05;10.20;;;5.73;;
8230;SDS011;4156;50.908;6.974;2023-01-30T09:11:31;10.27;;;6.03;;
8230;SDS011;4156;50.908;6.974;2023-01-30T09:13:56;8.27;;;5.27;;
8230;SDS011;4156;50.908;6.974;2023-01-30T09:16:22;10.43;;;5.10;;
8230;SDS011;4156;50.908;6.974;2023-01-30T09:18:47;8.37;;;5.17;;
8230;SDS011;4156;50.908;6.974;2023-01-30T09:21:13;10.57;;;4.63;;
8230;SDS011;4156;50.908;6.974;2023-01-30T09:23:39;8.37;;;4.53;;
8230;SDS011;4156;50.908;6.974;2023-01-30T09:26:05;11.27;;;5.47;;
8230;SDS011;4156;50.908;6.974;2023-01-30T09:28:31;11.90;;;4.77;;
8230;SDS011;4156;50.908;6.974;2023-01-30T09:30:57;9.73;;;3.50;;
8230;SDS011;4156;50.908;6.974;2023-01-30T09:33:23;9.27;;;3.60;;
8230;SDS011;4156;50.908;6.974;2023-01-30T09:35:49;8.63;;;3.33;;
8230;SDS011;4156;50.908;6.974;2023-01-30T09:38:17;6.57;;;3.30;;
8230;SDS011;4156;50.908;6.974;2023-01-30T09:40:54;7.37;;;3.37;;
8230;SDS011;4156;50.908;6.974;2023-01-30T09:54:53;7.23;;;2.63;;
8230;SDS011;4156;50.908;6.974;2023-01-30T09:57:24;7.07;;;2.50;;
8230;SDS011;4156;50.908;6.974;2023-01-30T10:02:33;9.93;;;2.90;;
8230;SDS011;4156;50.908;6.974;2023-01-30T10:05:05;7.97;;;3.00;;
8230;SDS011;4156;50.908;6.974;2023-01-30T10:07:37;5.50;;;2.60;;
8230;SDS011;4156;50.908;6.974;2023-01-30T10:10:26;7.53;;;2.50;;
8230;SDS011;4156;50.908;6.974;2023-01-30T10:21:30;7.00;;;2.80;;
8230;SDS011;4156;50.908;6.974;2023-01-30T10:24:15;6.00;;;2.73;;
8230;SDS011;4156;50.908;6.974;2023-01-30T10:26:55;5.97;;;2.57;;
8230;SDS011;4156;50.908;6.974;2023-01-30T10:29:32;9.30;;;2.73;;
8230;SDS011;4156;50.908;6.974;2023-01-30T10:32:03;10.43;;;2.73;;
8230;SDS011;4156;50.908;6.974;2023-01-30T10:34:35;6.83;;;2.50;;
8230;SDS011;4156;50.908;6.974;2023-01-30T10:37:08;9.53;;;3.53;;
8230;SDS011;4156;50.908;6.974;2023-01-30T10:39:49;6.87;;;2.33;;
8230;SDS011;4156;50.908;6.974;2023-01-30T10:42:17;6.27;;;2.60;;
8230;SDS011;4156;50.908;6.974;2023-01-30T10:45:12;5.57;;;2.30;;
8230;SDS011;4156;50.908;6.974;2023-01-30T10:50:51;5.87;;;2.40;;
8230;SDS011;4156;50.908;6.974;2023-01-30T10:53:26;12.80;;;3.33;;
8230;SDS011;4156;50.908;6.974;2023-01-30T10:56:19;7.03;;;2.73;;
8230;SDS011;4156;50.908;6.974;2023-01-30T10:59:02;11.67;;;2.60;;
8230;SDS011;4156;50.908;6.974;2023-01-30T11:01:41;7.93;;;4.53;;
8230;SDS011;4156;50.908;6.974;2023-01-30T11:04:22;9.90;;;2.83;;
8230;SDS011;4156;50.908;6.974;2023-01-30T11:06:54;10.30;;;2.93;;
8230;SDS011;4156;50.908;6.974;2023-01-30T11:09:22;7.63;;;2.47;;
8230;SDS011;4156;50.908;6.974;2023-01-30T11:11:48;7.77;;;2.60;;
8230;SDS011;4156;50.908;6.974;2023-01-30T11:14:20;8.33;;;2.33;;
8230;SDS011;4156;50.908;6.974;2023-01-30T11:16:50;12.27;;;2.60;;
8230;SDS011;4156;50.908;6.974;2023-01-30T11:19:24;8.57;;;2.30;;
8230;SDS011;4156;50.908;6.974;2023-01-30T11:21:59;8.47;;;2.30;;
8230;SDS011;4156;50.908;6.974;2023-01-30T11:29:39;10.30;;;3.27;;
8230;SDS011;4156;50.908;6.974;2023-01-30T11:32:05;8.63;;;3.10;;
8230;SDS011;4156;50.908;6.974;2023-01-30T11:35:06;11.20;;;2.40;;
8230;SDS011;4156;50.908;6.974;2023-01-30T11:37:40;5.63;;;2.50;;
8230;SDS011;4156;50.908;6.974;2023-01-30T11:42:43;7.53;;;2.40;;
8230;SDS011;4156;50.908;6.974;2023-01-30T11:45:10;5.07;;;2.20;;
8230;SDS011;4156;50.908;6.974;2023-01-30T11:47:36;8.47;;;2.20;;
8230;SDS011;4156;50.908;6.974;2023-01-30T11:50:03;5.13;;;2.30;;
8230;SDS011;4156;50.908;6.974;2023-01-30T11:52:33;10.00;;;2.67;;
8230;SDS011;4156;50.908;6.974;2023-01-30T11:55:02;7.10;;;3.47;;
8230;SDS011;4156;50.908;6.974;2023-01-30T11:57:51;11.47;;;2.53;;
8230;SDS011;4156;50.908;6.974;2023-01-30T12:00:22;16.13;;;4.00;;
8230;SDS011;4156;50.908;6.974;2023-01-30T12:02:53;8.93;;;2.70;;
8230;SDS011;4156;50.908;6.974;2023-01-30T12:05:25;9.47;;;2.63;;
8230;SDS011;4156;50.908;6.974;2023-01-30T12:10:45;7.37;;;2.20;;
8230;SDS011;4156;50.908;6.974;2023-01-30T12:13:19;6.23;;;2.20;;
8230;SDS011;4156;50.908;6.974;2023-01-30T12:16:00;10.13;;;2.40;;
8230;SDS011;4156;50.908;6.974;2023-01-30T12:18:40;8.13;;;2.20;;
8230;SDS011;4156;50.908;6.974;2023-01-30T12:21:28;11.30;;;2.40;;
8230;SDS011;4156;50.908;6.974;2023-01-30T12:24:12;13.57;;;2.73;;
8230;SDS011;4156;50.908;6.974;2023-01-30T12:29:28;10.20;;;3.03;;
8230;SDS011;4156;50.908;6.974;2023-01-30T12:32:01;7.87;;;2.70;;
8230;SDS011;4156;50.908;6.974;2023-01-30T12:34:41;8.50;;;2.50;;
8230;SDS011;4156;50.908;6.974;2023-01-30T12:48:41;9.37;;;2.50;;
8230;SDS011;4156;50.908;6.974;2023-01-30T12:54:32;6.10;;;2.83;;
8230;SDS011;4156;50.908;6.974;2023-01-30T13:03:33;6.30;;;2.23;;
8230;SDS011;4156;50.908;6.974;2023-01-30T13:06:21;8.20;;;2.33;;
8230;SDS011;4156;50.908;6.974;2023-01-30T13:08:54;5.93;;;2.40;;
8230;SDS011;4156;50.908;6.974;2023-01-30T13:11:53;8.23;;;2.40;;
8230;SDS011;4156;50.908;6.974;2023-01-30T13:14:40;5.47;;;2.47;;
8230;SDS011;4156;50.908;6.974;2023-01-30T13:25:28;6.97;;;2.40;;
8230;SDS011;4156;50.908;6.974;2023-01-30T13:28:05;10.37;;;2.60;;
8230;SDS011;4156;50.908;6.974;2023-01-30T13:30:36;7.17;;;2.17;;
8230;SDS011;4156;50.908;6.974;2023-01-30T13:33:07;11.90;;;3.10;;
8230;SDS011;4156;50.908;6.974;2023-01-30T13:35:44;8.37;;;2.60;;
8230;SDS011;4156;50.908;6.974;2023-01-30T13:38:16;7.07;;;2.70;;
8230;SDS011;4156;50.908;6.974;2023-01-30T13:40:45;6.53;;;2.40;;
8230;SDS011;4156;50.908;6.974;2023-01-30T13:43:21;7.67;;;2.47;;
8230;SDS011;4156;50.908;6.974;2023-01-30T13:46:00;9.60;;;2.83;;
8230;SDS011;4156;50.908;6.974;2023-01-30T13:48:34;8.30;;;2.20;;
8230;SDS011;4156;50.908;6.974;2023-01-30T13:53:58;8.20;;;2.83;;
8230;SDS011;4156;50.908;6.974;2023-01-30T13:59:38;9.63;;;3.70;;
8230;SDS011;4156;50.908;6.974;2023-01-30T14:02:31;12.17;;;3.17;;
8230;SDS011;4156;50.908;6.974;2023-01-30T14:04:56;10.80;;;2.83;;
8230;SDS011;4156;50.908;6.974;2023-01-30T14:07:40;7.03;;;2.27;;
8230;SDS011;4156;50.908;6.974;2023-01-30T14:12:34;8.93;;;2.80;;
8230;SDS011;4156;50.908;6.974;2023-01-30T14:20:25;9.00;;;3.03;;
8230;SDS011;4156;50.908;6.974;2023-01-30T14:22:53;6.83;;;2.93;;
8230;SDS011;4156;50.908;6.974;2023-01-30T14:35:46;8.40;;;2.63;;
8230;SDS011;4156;50.908;6.974;2023-01-30T14:38:13;8.27;;;3.73;;
8230;SDS011;4156;50.908;6.974;2023-01-30T14:40:47;13.50;;;2.60;;
8230;SDS011;4156;50.908;6.974;2023-01-30T14:43:34;7.13;;;2.60;;
8230;SDS011;4156;50.908;6.974;2023-01-30T14:46:41;5.60;;;2.47;;
8230;SDS011;4156;50.908;6.974;2023-01-30T16:02:45;12.23;;;3.57;;
8230;SDS011;4156;50.908;6.974;2023-01-30T16:09:42;10.10;;;2.30;;
8230;SDS011;4156;50.908;6.974;2023-01-30T16:55:30;17.23;;;4.07;;
8230;SDS011;4156;50.908;6.974;2023-01-30T16:58:50;11.77;;;3.47;;
8230;SDS011;4156;50.908;6.974;2023-01-30T17:12:42;11.77;;;3.53;;
8230;SDS011;4156;50.908;6.974;2023-01-30T17:19:17;9.23;;;2.80;;
8230;SDS011;4156;50.908;6.974;2023-01-30T17:23:07;14.40;;;3.77;;
8230;SDS011;4156;50.908;6.974;2023-01-30T17:26:31;11.40;;;2.73;;
8230;SDS011;4156;50.908;6.974;2023-01-30T17:30:13;9.70;;;2.90;;
8230;SDS011;4156;50.908;6.974;2023-01-30T17:36:34;11.17;;;3.23;;
8230;SDS011;4156;50.908;6.974;2023-01-30T17:40:17;8.63;;;3.40;;
8230;SDS011;4156;50.908;6.974;2023-01-30T17:50:13;12.40;;;2.70;;
8230;SDS011;4156;50.908;6.974;2023-01-30T17:53:36;8.60;;;2.80;;
8230;SDS011;4156;50.908;6.974;2023-01-30T18:27:19;11.00;;;3.13;;
8230;SDS011;4156;50.908;6.974;2023-01-30T18:31:13;8.03;;;3.20;;
8230;SDS011;4156;50.908;6.974;2023-01-30T18:38:11;12.00;;;2.77;;
8230;SDS011;4156;50.908;6.974;2023-01-30T18:41:55;12.23;;;3.87;;
8230;SDS011;4156;50.908;6.974;2023-01-30T18:45:14;11.87;;;3.20;;
8230;SDS011;4156;50.908;6.974;2023-01-30T18:59:25;10.00;;;2.90;;
8230;SDS011;4156;50.908;6.974;2023-01-30T19:01:50;10.80;;;3.00;;
8230;SDS011;4156;50.908;6.974;2023-01-30T19:04:16;9.93;;;2.33;;
8230;SDS011;4156;50.908;6.974;2023-01-30T19:06:41;10.10;;;2.87;;
8230;SDS011;4156;50.908;6.974;2023-01-30T19:09:10;12.77;;;3.00;;
8230;SDS011;4156;50.908;6.974;2023-01-30T19:11:37;11.30;;;3.30;;
8230;SDS011;4156;50.908;6.974;2023-01-30T19:14:21;9.97;;;4.53;;
8230;SDS011;4156;50.908;6.974;2023-01-30T19:16:47;8.57;;;2.63;;
8230;SDS011;4156;50.908;6.974;2023-01-30T19:19:15;10.97;;;3.43;;
8230;SDS011;4156;50.908;6.974;2023-01-30T19:21:40;10.13;;;3.37;;
8230;SDS011;4156;50.908;6.974;2023-01-30T19:24:06;15.17;;;4.40;;
8230;SDS011;4156;50.908;6.974;2023-01-30T19:26:36;14.47;;;3.57;;
8230;SDS011;4156;50.908;6.974;2023-01-30T19:29:02;9.80;;;3.00;;
8230;SDS011;4156;50.908;6.974;2023-01-30T19:31:27;11.30;;;3.60;;
8230;SDS011;4156;50.908;6.974;2023-01-30T19:33:57;11.27;;;3.40;;
8230;SDS011;4156;50.908;6.974;2023-01-30T19:36:25;10.63;;;2.87;;
8230;SDS011;4156;50.908;6.974;2023-01-30T19:38:52;12.10;;;3.47;;
8230;SDS011;4156;50.908;6.974;2023-01-30T19:41:19;14.73;;;3.17;;
8230;SDS011;4156;50.908;6.974;2023-01-30T19:43:50;11.07;;;2.90;;
8230;SDS011;4156;50.908;6.974;2023-01-30T19:46:17;10.50;;;3.80;;
8230;SDS011;4156;50.908;6.974;2023-01-30T19:48:43;11.97;;;2.80;;
8230;SDS011;4156;50.908;6.974;2023-01-30T19:51:11;13.17;;;3.40;;
8230;SDS011;4156;50.908;6.974;2023-01-30T19:53:43;13.80;;;3.80;;
8230;SDS011;4156;50.908;6.974;2023-01-30T19:56:10;11.30;;;3.07;;
8230;SDS011;4156;50.908;6.974;2023-01-30T19:58:37;13.83;;;3.00;;
8230;SDS011;4156;50.908;6.974;2023-01-30T20:01:04;9.43;;;3.03;;
8230;SDS011;4156;50.908;6.974;2023-01-30T20:03:31;8.80;;;2.67;;
8230;SDS011;4156;50.908;6.974;2023-01-30T20:08:31;19.27;;;4.00;;
8230;SDS011;4156;50.908;6.974;2023-01-30T20:11:01;13.50;;;3.30;;
8230;SDS011;4156;50.908;6.974;2023-01-30T20:13:33;13.83;;;4.17;;
8230;SDS011;4156;50.908;6.974;2023-01-30T20:16:01;11.50;;;3.23;;
8230;SDS011;4156;50.908;6.974;2023-01-30T20:18:31;13.60;;;5.07;;
8230;SDS011;4156;50.908;6.974;2023-01-30T20:21:12;17.43;;;3.50;;
8230;SDS011;4156;50.908;6.974;2023-01-30T20:23:39;9.67;;;3.20;;
8230;SDS011;4156;50.908;6.974;2023-01-30T20:26:06;13.60;;;4.13;;
8230;SDS011;4156;50.908;6.974;2023-01-30T20:28:33;17.50;;;5.93;;
8230;SDS011;4156;50.908;6.974;2023-01-30T20:31:05;10.47;;;2.90;;
8230;SDS011;4156;50.908;6.974;2023-01-30T20:33:35;7.93;;;3.43;;
8230;SDS011;4156;50.908;6.974;2023-01-30T20:36:04;10.80;;;3.90;;
8230;SDS011;4156;50.908;6.974;2023-01-30T20:38:32;14.47;;;3.93;;
8230;SDS011;4156;50.908;6.974;2023-01-30T20:41:06;15.93;;;3.97;;